Time;durP1;ratioP1;P1;durP2;ratioP2;P2;SDS_P1;SDS_P2;PMS_P1;PMS_P2;Temp;Humidity;BMP_temperature;BMP_pressure;BME280_temperature;BME280_humidity;BME280_pressure;Samples;Min_cycle;Max_cycle;Signal;HPM_P1;HPM_P2
2023/11/05 00:00:27;;;;;;;21.67;11.30;;;2.50;99.90;;;;;;5099280;28;20036;-76
2023/11/05 00:02:53;;;;;;;19.38;9.43;;;2.60;99.90;;;;;;5085813;28;20036;-76
2023/11/05 00:05:18;;;;;;;18.85;9.43;;;2.80;99.90;;;;;;5022087;28;20029;-81
2023/11/05 00:07:44;;;;;;;17.10;10.70;;;3.10;99.90;;;;;;5031263;28;20026;-75
2023/11/05 00:10:10;;;;;;;22.40;12.50;;;3.30;99.90;;;;;;5096742;28;20017;-80
2023/11/05 00:12:36;;;;;;;20.90;12.77;;;3.30;99.90;;;;;;5031549;28;20053;-75
2023/11/05 00:15:02;;;;;;;22.30;12.18;;;3.40;99.90;;;;;;5031384;28;20026;-75
2023/11/05 00:17:27;;;;;;;21.17;12.35;;;3.40;99.90;;;;;;5099030;28;20010;-76
2023/11/05 00:19:53;;;;;;;29.33;16.25;;;3.40;99.90;;;;;;5097154;28;20098;-76
2023/11/05 00:22:19;;;;;;;25.25;13.60;;;3.30;99.90;;;;;;5031431;28;20101;-77
2023/11/05 00:24:45;;;;;;;23.88;13.82;;;3.30;99.90;;;;;;5029546;28;20033;-76
2023/11/05 00:27:11;;;;;;;22.83;12.50;;;3.30;99.90;;;;;;5024353;28;20054;-80
2023/11/05 00:29:36;;;;;;;13.90;8.63;;;3.30;99.90;;;;;;5024984;28;20018;-80
2023/11/05 00:32:02;;;;;;;12.95;7.20;;;3.40;99.90;;;;;;5033554;27;20037;-75
2023/11/05 00:34:28;;;;;;;27.65;11.77;;;3.60;99.90;;;;;;5042270;27;20087;-76
2023/11/05 00:36:54;;;;;;;15.02;8.50;;;3.70;99.90;;;;;;5099711;28;20105;-81
2023/11/05 00:39:20;;;;;;;13.35;8.15;;;3.90;99.90;;;;;;5031101;28;20364;-76
2023/11/05 00:41:45;;;;;;;11.27;6.53;;;4.10;99.90;;;;;;5099630;28;20090;-76
2023/11/05 00:44:12;;;;;;;16.92;8.65;;;4.20;99.90;;;;;;5031249;28;20010;-81
2023/11/05 00:46:38;;;;;;;16.70;7.63;;;4.30;99.90;;;;;;5099445;28;20017;-81
2023/11/05 00:49:03;;;;;;;69.85;23.60;;;4.20;99.90;;;;;;5031139;28;20024;-81
2023/11/05 00:51:29;;;;;;;51.33;19.38;;;4.20;99.90;;;;;;5099324;28;20037;-80
2023/11/05 00:53:55;;;;;;;63.75;20.20;;;4.00;99.90;;;;;;5099640;28;20022;-82
2023/11/05 00:56:21;;;;;;;33.88;13.70;;;4.00;99.90;;;;;;5099349;28;20013;-78
2023/11/05 00:58:46;;;;;;;29.50;11.57;;;3.90;99.90;;;;;;5098632;28;20075;-80
2023/11/05 01:01:12;;;;;;;14.00;6.68;;;3.90;99.90;;;;;;5030969;28;20074;-81
2023/11/05 01:03:38;;;;;;;11.63;6.32;;;4.10;99.90;;;;;;5026574;28;20055;-76
2023/11/05 01:06:04;;;;;;;13.13;5.68;;;4.40;99.90;;;;;;5092928;28;20026;-77
2023/11/05 01:08:30;;;;;;;12.32;6.47;;;4.70;99.90;;;;;;5030158;28;20025;-76
2023/11/05 01:10:55;;;;;;;8.95;5.25;;;4.80;99.90;;;;;;5030687;28;20030;-81
2023/11/05 01:13:21;;;;;;;9.48;5.78;;;5.00;99.90;;;;;;5030632;28;20411;-77
2023/11/05 01:15:47;;;;;;;5.60;4.38;;;5.10;99.90;;;;;;5098944;28;20025;-77
2023/11/05 01:18:12;;;;;;;10.20;5.65;;;5.30;99.90;;;;;;5098719;28;20022;-77
2023/11/05 01:20:38;;;;;;;9.07;5.65;;;5.40;99.90;;;;;;5098623;28;20021;-81
2023/11/05 01:23:03;;;;;;;9.43;5.05;;;5.40;99.90;;;;;;5099010;28;20029;-81
2023/11/05 01:25:29;;;;;;;8.73;4.57;;;5.40;99.90;;;;;;5030261;28;20575;-77
2023/11/05 01:27:55;;;;;;;7.85;4.50;;;5.50;99.90;;;;;;5112273;28;20043;-81
2023/11/05 01:30:20;;;;;;;9.45;5.10;;;5.50;99.90;;;;;;5113793;28;20487;-76
2023/11/05 01:32:46;;;;;;;7.78;4.65;;;5.50;99.90;;;;;;5110958;28;20031;-76
2023/11/05 01:35:12;;;;;;;8.40;5.38;;;5.50;99.90;;;;;;5112671;28;20019;-76
2023/11/05 01:37:38;;;;;;;8.38;5.00;;;5.50;99.90;;;;;;5113874;28;20126;-76
2023/11/05 01:40:06;;;;;;;9.50;5.35;;;5.50;99.90;;;;;;5113815;28;20042;-80
2023/11/05 01:42:31;;;;;;;8.45;5.03;;;5.40;99.90;;;;;;5112422;28;20025;-76
2023/11/05 01:44:57;;;;;;;9.70;5.38;;;5.40;99.90;;;;;;5112269;28;20015;-81
2023/11/05 01:47:23;;;;;;;10.68;5.72;;;5.40;99.90;;;;;;5113457;28;20076;-82
2023/11/05 01:49:49;;;;;;;7.28;4.65;;;5.40;99.90;;;;;;5112341;28;20020;-77
2023/11/05 01:52:17;;;;;;;6.65;4.40;;;5.30;99.90;;;;;;5113566;28;20024;-77
2023/11/05 01:54:43;;;;;;;7.10;4.20;;;5.30;99.90;;;;;;5111951;28;20015;-77
2023/11/05 01:57:09;;;;;;;7.68;5.15;;;5.40;99.90;;;;;;5112332;28;20012;-81
2023/11/05 01:59:36;;;;;;;6.40;4.55;;;5.40;99.90;;;;;;5105413;28;20149;-76
2023/11/05 02:02:02;;;;;;;8.82;4.15;;;5.40;99.90;;;;;;5108917;28;20011;-82
2023/11/05 02:04:28;;;;;;;6.28;4.38;;;5.40;99.90;;;;;;5105819;28;20030;-81
2023/11/05 02:06:53;;;;;;;8.50;5.07;;;5.40;99.90;;;;;;5111632;28;20073;-82
2023/11/05 02:09:19;;;;;;;5.90;4.63;;;5.40;99.90;;;;;;5111744;28;20385;-77
2023/11/05 02:11:45;;;;;;;5.93;4.50;;;5.40;99.90;;;;;;5109654;28;20099;-76
2023/11/05 02:14:14;;;;;;;6.75;4.60;;;5.40;99.90;;;;;;5110026;28;20024;-77
2023/11/05 02:16:40;;;;;;;7.15;4.38;;;5.30;99.90;;;;;;5111867;28;20016;-81
2023/11/05 02:19:06;;;;;;;10.02;4.90;;;5.30;99.90;;;;;;5103641;28;20350;-81
2023/11/05 02:21:44;;;;;;;8.13;4.60;;;5.20;99.90;;;;;;5111505;28;20103;-81
2023/11/05 02:24:09;;;;;;;7.55;4.65;;;5.10;99.90;;;;;;5112672;28;20019;-77
2023/11/05 02:26:35;;;;;;;9.35;4.85;;;5.00;99.90;;;;;;5111335;28;20477;-76
2023/11/05 02:29:01;;;;;;;5.47;4.97;;;5.00;99.90;;;;;;5111732;28;20481;-81
2023/11/05 02:31:26;;;;;;;7.65;5.03;;;5.00;99.90;;;;;;5111693;28;20106;-76
2023/11/05 02:33:52;;;;;;;8.05;5.38;;;4.90;99.90;;;;;;5111736;28;20082;-81
2023/11/05 02:36:18;;;;;;;9.65;4.75;;;4.90;99.90;;;;;;5112569;28;20503;-76
2023/11/05 02:38:44;;;;;;;8.43;5.57;;;4.90;99.90;;;;;;5112660;28;20032;-76
2023/11/05 02:41:11;;;;;;;6.45;4.00;;;4.80;99.90;;;;;;5113002;28;20423;-76
2023/11/05 02:43:38;;;;;;;6.63;4.25;;;4.80;99.90;;;;;;5112736;28;20023;-76
2023/11/05 02:46:04;;;;;;;6.78;4.32;;;4.90;99.90;;;;;;5111491;28;20058;-76
2023/11/05 02:48:30;;;;;;;6.13;4.43;;;4.90;99.90;;;;;;5111764;28;20047;-76
2023/11/05 02:50:55;;;;;;;8.88;4.43;;;4.80;99.90;;;;;;5112654;28;20023;-76
2023/11/05 02:53:21;;;;;;;10.00;4.78;;;4.90;99.90;;;;;;5111608;28;20384;-80
2023/11/05 02:55:48;;;;;;;6.80;4.80;;;4.90;99.90;;;;;;5112542;28;20034;-81
2023/11/05 02:58:14;;;;;;;8.55;5.45;;;4.80;99.90;;;;;;5112967;28;20028;-81
2023/11/05 03:00:40;;;;;;;8.88;5.18;;;4.80;99.90;;;;;;5110983;28;20503;-81
2023/11/05 03:03:06;;;;;;;5.65;4.47;;;4.80;99.90;;;;;;5112226;28;20020;-77
2023/11/05 03:05:32;;;;;;;6.97;4.40;;;4.70;99.90;;;;;;5111351;28;20028;-81
2023/11/05 03:07:57;;;;;;;6.55;3.75;;;4.80;99.90;;;;;;5111091;28;20129;-81
2023/11/05 03:10:23;;;;;;;6.82;4.13;;;4.80;99.90;;;;;;5110425;28;20024;-81
2023/11/05 03:12:49;;;;;;;6.15;3.85;;;4.90;99.90;;;;;;5111442;28;20026;-81
2023/11/05 03:15:14;;;;;;;8.23;4.05;;;4.90;99.90;;;;;;5112588;28;20016;-77
2023/11/05 03:17:40;;;;;;;7.28;3.85;;;5.00;99.90;;;;;;5112674;28;20073;-77
2023/11/05 03:20:07;;;;;;;4.82;3.80;;;5.10;99.90;;;;;;5112055;28;20042;-77
2023/11/05 03:22:36;;;;;;;6.35;3.80;;;5.20;99.90;;;;;;5113247;28;20026;-76
2023/11/05 03:25:04;;;;;;;3.25;2.95;;;5.30;99.90;;;;;;5103098;28;20102;-81
2023/11/05 03:27:30;;;;;;;5.22;3.38;;;5.30;99.90;;;;;;5108653;28;20155;-76
2023/11/05 03:29:56;;;;;;;7.35;4.57;;;5.40;99.90;;;;;;5112391;28;20564;-81
2023/11/05 03:32:21;;;;;;;5.22;3.45;;;5.40;99.90;;;;;;5115699;27;20393;-76
2023/11/05 03:34:47;;;;;;;6.45;4.07;;;5.50;99.90;;;;;;5116008;28;20023;-82
2023/11/05 03:37:13;;;;;;;4.95;3.70;;;5.50;99.90;;;;;;5114996;28;20468;-76
2023/11/05 03:39:38;;;;;;;6.72;4.30;;;5.50;99.90;;;;;;5105111;28;20388;-76
2023/11/05 03:42:06;;;;;;;7.65;3.60;;;5.50;99.90;;;;;;5115907;28;20055;-76
2023/11/05 03:44:32;;;;;;;7.25;4.47;;;5.50;99.90;;;;;;5115903;28;20018;-76
2023/11/05 03:46:58;;;;;;;5.70;3.90;;;5.50;99.90;;;;;;5114633;28;20381;-76
2023/11/05 03:49:23;;;;;;;7.30;4.78;;;5.50;99.90;;;;;;5114633;28;20047;-81
2023/11/05 03:51:49;;;;;;;27.30;20.58;;;5.50;99.90;;;;;;5114519;28;20035;-81
2023/11/05 03:54:15;;;;;;;12.90;9.40;;;5.50;99.90;;;;;;5114503;28;20012;-76
2023/11/05 03:56:42;;;;;;;9.38;6.32;;;5.50;99.90;;;;;;5114511;28;20020;-81
2023/11/05 03:59:08;;;;;;;8.02;5.00;;;5.50;99.90;;;;;;5111807;28;20024;-76
2023/11/05 04:01:34;;;;;;;6.88;4.13;;;5.50;99.90;;;;;;5105423;28;20031;-81
2023/11/05 04:04:00;;;;;;;5.35;3.78;;;5.50;99.90;;;;;;5113562;28;20019;-81
2023/11/05 04:06:26;;;;;;;5.60;3.70;;;5.50;99.90;;;;;;5115591;28;20012;-81
2023/11/05 04:08:51;;;;;;;35.58;16.67;;;5.50;99.90;;;;;;5115266;28;20434;-76
2023/11/05 04:11:17;;;;;;;80.60;33.85;;;5.50;99.90;;;;;;5115401;28;20036;-81
2023/11/05 04:13:44;;;;;;;36.53;15.40;;;5.50;99.90;;;;;;5115483;28;20039;-77
2023/11/05 04:16:10;;;;;;;24.88;13.40;;;5.50;99.90;;;;;;5115435;28;20016;-81
2023/11/05 04:18:36;;;;;;;14.55;8.07;;;5.50;99.90;;;;;;5115321;28;20027;-81
2023/11/05 04:21:02;;;;;;;11.38;7.05;;;5.50;99.90;;;;;;5115272;28;20024;-81
2023/11/05 04:23:27;;;;;;;13.95;6.55;;;5.40;99.90;;;;;;5115290;28;20019;-76
2023/11/05 04:25:53;;;;;;;8.25;4.20;;;5.40;99.90;;;;;;5113751;28;20023;-81
2023/11/05 04:28:18;;;;;;;9.20;4.90;;;5.40;99.90;;;;;;5037227;28;20045;-76
2023/11/05 04:30:46;;;;;;;22.67;12.15;;;5.40;99.90;;;;;;5099062;28;20118;-76
2023/11/05 04:33:11;;;;;;;12.68;8.18;;;5.30;99.90;;;;;;5030752;28;20039;-76
2023/11/05 04:35:37;;;;;;;12.60;7.40;;;5.40;99.90;;;;;;5098003;28;20025;-81
2023/11/05 04:38:02;;;;;;;15.05;8.45;;;5.40;99.90;;;;;;5087569;28;20017;-81
2023/11/05 04:40:28;;;;;;;15.50;8.48;;;5.30;99.90;;;;;;5031351;28;20500;-81
2023/11/05 04:42:54;;;;;;;17.63;8.75;;;5.20;99.90;;;;;;5031203;28;20035;-81
2023/11/05 04:45:20;;;;;;;16.60;8.65;;;5.20;99.90;;;;;;5099893;28;20079;-76
2023/11/05 04:47:46;;;;;;;69.63;31.65;;;5.20;99.90;;;;;;5097879;28;20162;-76
2023/11/05 04:50:12;;;;;;;26.88;13.52;;;5.20;99.90;;;;;;5031107;28;20014;-76
2023/11/05 04:52:38;;;;;;;43.50;23.02;;;5.20;99.90;;;;;;5098472;28;20443;-81
2023/11/05 04:55:05;;;;;;;28.80;14.77;;;5.30;99.90;;;;;;5030987;28;20033;-77
2023/11/05 04:57:31;;;;;;;47.00;21.67;;;5.30;99.90;;;;;;5082426;28;20017;-81
2023/11/05 04:59:57;;;;;;;16.13;9.43;;;5.40;99.90;;;;;;5028704;28;20029;-81
2023/11/05 05:02:23;;;;;;;18.92;9.48;;;5.40;99.90;;;;;;5030881;28;20428;-76
2023/11/05 05:04:49;;;;;;;9.98;6.55;;;5.40;99.90;;;;;;5096665;28;20471;-76
2023/11/05 05:07:14;;;;;;;21.33;11.07;;;5.50;99.90;;;;;;5092580;28;20071;-82
2023/11/05 05:09:40;;;;;;;27.02;13.45;;;5.50;99.90;;;;;;5030289;28;20029;-77
2023/11/05 05:12:06;;;;;;;17.30;9.02;;;5.60;99.90;;;;;;5098765;28;20048;-82
2023/11/05 05:14:32;;;;;;;14.25;8.40;;;5.60;99.90;;;;;;5099091;28;20021;-77
2023/11/05 05:16:58;;;;;;;9.45;6.07;;;5.70;99.90;;;;;;5099218;28;20025;-77
2023/11/05 05:19:24;;;;;;;6.75;4.78;;;5.70;99.90;;;;;;5030344;28;20021;-76
2023/11/05 05:21:49;;;;;;;7.60;4.10;;;5.70;99.90;;;;;;5098898;28;20028;-82
2023/11/05 05:24:16;;;;;;;4.57;3.60;;;5.80;99.90;;;;;;5098601;28;20467;-81
2023/11/05 05:26:41;;;;;;;10.80;6.50;;;5.80;99.90;;;;;;5030451;28;20053;-80
2023/11/05 05:29:07;;;;;;;5.43;3.55;;;5.90;99.90;;;;;;5098910;28;20159;-80
2023/11/05 05:31:33;;;;;;;7.20;4.30;;;5.90;99.90;;;;;;5098579;28;20530;-82
2023/11/05 05:33:59;;;;;;;4.90;3.22;;;5.90;99.90;;;;;;5030375;28;20540;-77
2023/11/05 05:36:25;;;;;;;6.30;3.63;;;5.90;99.90;;;;;;5087626;28;20026;-77
2023/11/05 05:38:52;;;;;;;5.85;3.67;;;5.90;99.90;;;;;;5030698;28;20067;-81
2023/11/05 05:41:18;;;;;;;10.70;4.15;;;6.00;99.90;;;;;;5017414;28;20024;-76
2023/11/05 05:43:43;;;;;;;5.32;4.00;;;6.00;99.90;;;;;;5098455;28;20022;-76
2023/11/05 05:46:16;;;;;;;6.80;4.13;;;6.00;99.90;;;;;;5097877;28;20381;-82
2023/11/05 05:48:42;;;;;;;7.20;4.25;;;6.10;99.90;;;;;;5024886;28;20387;-77
2023/11/05 05:51:14;;;;;;;10.70;5.28;;;6.10;99.90;;;;;;5026479;28;20447;-77
2023/11/05 05:53:40;;;;;;;6.25;4.70;;;6.10;99.90;;;;;;5098532;28;20410;-77
2023/11/05 05:56:07;;;;;;;7.25;4.57;;;6.10;99.90;;;;;;5030160;28;20026;-82
2023/11/05 05:58:32;;;;;;;6.80;4.72;;;6.10;99.90;;;;;;5030556;28;20024;-77
2023/11/05 06:00:58;;;;;;;7.70;5.40;;;6.10;99.90;;;;;;5029943;28;20100;-77
2023/11/05 06:03:24;;;;;;;9.18;5.22;;;6.20;99.90;;;;;;5030263;28;20014;-82
2023/11/05 06:05:50;;;;;;;20.77;12.88;;;6.20;99.90;;;;;;5029555;28;20467;-76
2023/11/05 06:08:15;;;;;;;30.63;17.73;;;6.20;99.90;;;;;;5029888;28;20100;-81
2023/11/05 06:10:41;;;;;;;11.27;7.13;;;6.20;99.90;;;;;;5097916;28;20053;-76
2023/11/05 06:13:07;;;;;;;11.45;7.10;;;6.20;99.90;;;;;;5097213;28;20022;-82
2023/11/05 06:15:33;;;;;;;9.23;4.90;;;6.20;99.90;;;;;;5098236;28;20021;-81
2023/11/05 06:17:58;;;;;;;7.40;4.88;;;6.20;99.90;;;;;;5029471;28;20097;-77
2023/11/05 06:20:24;;;;;;;11.20;6.72;;;6.30;99.90;;;;;;5022092;27;20049;-77
2023/11/05 06:22:53;;;;;;;9.77;6.00;;;6.30;99.90;;;;;;5019236;28;20040;-77
2023/11/05 06:25:19;;;;;;;10.70;6.57;;;6.20;99.90;;;;;;5096108;28;20120;-77
2023/11/05 06:27:45;;;;;;;9.13;6.38;;;6.20;99.90;;;;;;5083834;28;20053;-77
2023/11/05 06:30:11;;;;;;;11.38;7.07;;;6.20;99.90;;;;;;5011120;27;20045;-77
2023/11/05 06:32:38;;;;;;;10.73;7.25;;;6.10;99.90;;;;;;5023581;28;20041;-77
2023/11/05 06:35:04;;;;;;;46.08;27.02;;;6.10;99.90;;;;;;5046337;28;20043;-77
2023/11/05 06:37:30;;;;;;;9.75;6.55;;;6.10;99.90;;;;;;5095170;28;20478;-82
2023/11/05 06:40:00;;;;;;;6.78;5.63;;;6.10;99.90;;;;;;5106817;28;20041;-83
2023/11/05 06:42:25;;;;;;;10.55;7.03;;;6.10;99.90;;;;;;5096271;28;20100;-82
2023/11/05 06:44:51;;;;;;;9.20;6.57;;;6.10;99.90;;;;;;5095821;28;20186;-82
2023/11/05 06:47:17;;;;;;;10.00;5.40;;;6.20;99.90;;;;;;5091498;28;20024;-82
2023/11/05 06:49:43;;;;;;;5.25;4.05;;;6.10;99.90;;;;;;5023762;28;20098;-83
2023/11/05 06:52:08;;;;;;;6.45;4.18;;;6.20;99.90;;;;;;5027575;28;20029;-83
2023/11/05 06:54:34;;;;;;;7.53;4.45;;;6.30;99.90;;;;;;5024503;28;20073;-83
2023/11/05 06:57:00;;;;;;;5.45;3.20;;;6.30;99.90;;;;;;5025755;28;20025;-83
2023/11/05 06:59:26;;;;;;;6.13;4.65;;;6.40;99.90;;;;;;5028772;28;20097;-83
2023/11/05 07:01:52;;;;;;;8.18;4.30;;;6.50;99.90;;;;;;5029610;28;20128;-83
2023/11/05 07:04:21;;;;;;;4.95;3.10;;;6.50;99.90;;;;;;5024320;28;20029;-83
2023/11/05 07:06:47;;;;;;;9.57;6.47;;;6.60;99.90;;;;;;5028266;28;20042;-83
2023/11/05 07:09:13;;;;;;;13.65;6.40;;;6.70;99.90;;;;;;5027957;28;20030;-83
2023/11/05 07:11:40;;;;;;;4.88;4.07;;;6.80;99.90;;;;;;5097818;28;20441;-83
2023/11/05 07:14:06;;;;;;;5.18;3.70;;;6.80;99.90;;;;;;5031598;28;20018;-83
2023/11/05 07:16:32;;;;;;;8.57;4.65;;;6.90;99.90;;;;;;5031509;28;20530;-83
2023/11/05 07:18:58;;;;;;;5.93;3.65;;;6.90;99.90;;;;;;5095815;28;20112;-83
2023/11/05 07:21:23;;;;;;;6.68;5.30;;;7.00;99.90;;;;;;5029365;28;20037;-83
2023/11/05 07:23:49;;;;;;;8.25;4.88;;;7.00;99.90;;;;;;5096843;28;20022;-83
2023/11/05 07:26:15;;;;;;;4.18;3.30;;;7.10;99.90;;;;;;5026757;28;20038;-83
2023/11/05 07:28:42;;;;;;;4.63;3.60;;;7.10;99.90;;;;;;5021050;28;20040;-77
2023/11/05 07:31:08;;;;;;;9.60;5.55;;;7.20;99.90;;;;;;5097139;28;20052;-77
2023/11/05 07:33:34;;;;;;;7.80;4.40;;;7.30;99.90;;;;;;5092111;27;20034;-76
2023/11/05 07:36:01;;;;;;;6.25;4.15;;;7.30;99.90;;;;;;5014714;28;20387;-76
2023/11/05 07:38:26;;;;;;;13.80;6.18;;;7.30;99.90;;;;;;5024374;28;20036;-76
2023/11/05 07:40:53;;;;;;;12.68;6.25;;;7.40;99.90;;;;;;5028838;28;20034;-77
2023/11/05 07:43:18;;;;;;;4.95;3.03;;;7.40;99.90;;;;;;5095243;28;20025;-76
2023/11/05 07:45:44;;;;;;;6.28;3.20;;;7.50;99.90;;;;;;5096656;28;20029;-81
2023/11/05 07:48:09;;;;;;;5.15;3.15;;;7.60;99.90;;;;;;5099829;28;20128;-81
2023/11/05 07:50:36;;;;;;;4.68;3.10;;;7.60;99.90;;;;;;5028182;28;20037;-76
2023/11/05 07:53:01;;;;;;;7.07;3.00;;;7.60;99.90;;;;;;5099813;28;20029;-76
2023/11/05 07:55:27;;;;;;;3.17;2.55;;;7.70;99.90;;;;;;5100340;28;20440;-76
2023/11/05 07:57:52;;;;;;;4.95;3.17;;;7.70;99.90;;;;;;5027515;28;20045;-81
2023/11/05 08:00:19;;;;;;;6.50;4.60;;;7.70;99.90;;;;;;5029810;28;20022;-82
2023/11/05 08:02:47;;;;;;;6.80;3.75;;;7.70;99.90;;;;;;5025926;28;20070;-83
2023/11/05 08:05:13;;;;;;;9.20;5.00;;;7.80;99.90;;;;;;5031551;28;20025;-76
2023/11/05 08:07:38;;;;;;;7.40;5.25;;;7.70;99.90;;;;;;5030607;28;20033;-77
2023/11/05 08:10:08;;;;;;;9.93;6.38;;;7.70;99.90;;;;;;5031795;28;20433;-76
2023/11/05 08:12:35;;;;;;;13.52;6.53;;;7.70;99.90;;;;;;5089225;28;20068;-76
2023/11/05 08:15:01;;;;;;;9.60;6.07;;;7.70;99.90;;;;;;5097364;28;20056;-77
2023/11/05 08:17:27;;;;;;;11.35;6.43;;;7.70;99.90;;;;;;5098988;28;20036;-82
2023/11/05 08:19:53;;;;;;;12.50;6.47;;;7.70;99.90;;;;;;5030185;27;20030;-77
2023/11/05 08:22:19;;;;;;;10.80;6.55;;;7.70;99.90;;;;;;5096858;28;20112;-77
2023/11/05 08:24:45;;;;;;;10.73;6.07;;;7.60;99.90;;;;;;5030965;28;20451;-77
2023/11/05 08:27:12;;;;;;;10.50;6.43;;;7.60;99.90;;;;;;5020635;28;20054;-77
2023/11/05 08:29:40;;;;;;;12.45;5.97;;;7.70;99.90;;;;;;5021503;27;20041;-76
2023/11/05 08:32:09;;;;;;;9.70;6.00;;;7.70;99.90;;;;;;5020514;28;20046;-76
2023/11/05 08:34:35;;;;;;;12.32;7.50;;;7.70;99.90;;;;;;5028616;28;20045;-77
2023/11/05 08:37:02;;;;;;;12.45;7.35;;;7.70;99.90;;;;;;5084674;27;20014;-76
2023/11/05 08:39:30;;;;;;;10.98;6.53;;;7.70;99.90;;;;;;5087086;28;20076;-76
2023/11/05 08:41:57;;;;;;;7.00;5.43;;;7.70;99.90;;;;;;5023500;28;20431;-77
2023/11/05 08:44:22;;;;;;;6.05;4.97;;;7.60;99.90;;;;;;5092651;28;20064;-77
2023/11/05 08:46:48;;;;;;;5.90;4.72;;;7.60;99.90;;;;;;5029949;28;20057;-77
2023/11/05 08:49:14;;;;;;;6.18;4.38;;;7.60;99.90;;;;;;5098622;28;20539;-76
2023/11/05 08:51:40;;;;;;;12.35;8.13;;;7.60;99.90;;;;;;5093504;28;20087;-77
2023/11/05 08:54:06;;;;;;;22.27;12.77;;;7.60;99.90;;;;;;5095587;28;20486;-76
2023/11/05 08:56:32;;;;;;;26.35;19.30;;;7.50;99.90;;;;;;5029636;28;20493;-77
2023/11/05 08:58:57;;;;;;;23.52;14.80;;;7.60;99.90;;;;;;5027104;28;20194;-76
2023/11/05 09:01:23;;;;;;;9.85;7.05;;;7.50;99.90;;;;;;5090752;28;20033;-76
2023/11/05 09:03:49;;;;;;;9.13;7.10;;;7.50;99.90;;;;;;5112187;27;20551;-77
2023/11/05 09:06:15;;;;;;;8.55;6.22;;;7.50;99.90;;;;;;5093535;27;20489;-77
2023/11/05 09:08:41;;;;;;;9.85;6.93;;;7.50;99.90;;;;;;5088661;28;20049;-77
2023/11/05 09:11:08;;;;;;;8.95;5.40;;;7.50;99.90;;;;;;5093576;28;20030;-76
2023/11/05 09:13:34;;;;;;;8.93;5.35;;;7.40;99.90;;;;;;5096942;28;20034;-76
2023/11/05 09:16:01;;;;;;;13.60;6.93;;;7.40;99.90;;;;;;5018745;28;20038;-77
2023/11/05 09:18:26;;;;;;;20.20;10.27;;;7.50;99.90;;;;;;5016588;28;20030;-78
2023/11/05 09:20:52;;;;;;;9.07;4.97;;;7.50;99.90;;;;;;5030637;28;20036;-83
2023/11/05 09:23:18;;;;;;;5.03;3.10;;;7.50;99.90;;;;;;5030476;28;20033;-82
2023/11/05 09:25:44;;;;;;;5.75;3.72;;;7.50;99.90;;;;;;5020345;28;20039;-83
2023/11/05 09:28:10;;;;;;;8.95;5.15;;;7.40;99.90;;;;;;5020591;28;20042;-83
2023/11/05 09:30:36;;;;;;;6.72;4.05;;;7.40;99.90;;;;;;5092702;28;20029;-83
2023/11/05 09:33:01;;;;;;;4.70;2.90;;;7.40;99.90;;;;;;5092831;28;20458;-83
2023/11/05 09:35:27;;;;;;;4.65;2.47;;;7.40;99.90;;;;;;5022127;28;20037;-84
2023/11/05 09:37:53;;;;;;;5.20;2.60;;;7.40;99.90;;;;;;5030224;28;20413;-84
2023/11/05 09:40:19;;;;;;;3.83;2.55;;;7.40;99.90;;;;;;5024813;28;20018;-84
2023/11/05 09:42:58;;;;;;;4.53;3.42;;;7.40;99.90;;;;;;5096458;28;20109;-84
2023/11/05 09:45:27;;;;;;;6.43;2.75;;;7.50;99.90;;;;;;5091888;28;20037;-84
2023/11/05 09:47:54;;;;;;;3.47;2.95;;;7.50;99.90;;;;;;5097407;28;20029;-84
2023/11/05 09:50:20;;;;;;;7.65;5.53;;;7.50;99.90;;;;;;5094877;28;20375;-77
2023/11/05 09:52:47;;;;;;;4.72;2.70;;;7.50;99.90;;;;;;5095564;28;20125;-84
2023/11/05 09:55:12;;;;;;;6.30;4.03;;;7.50;99.90;;;;;;5024204;28;20038;-83
2023/11/05 09:57:39;;;;;;;5.03;3.60;;;7.50;99.90;;;;;;5030016;28;20022;-84
2023/11/05 10:00:09;;;;;;;3.33;2.20;;;7.60;99.90;;;;;;5097656;28;20059;-84
2023/11/05 10:02:53;;;;;;;2.83;2.20;;;7.50;99.90;;;;;;5098306;28;20074;-83
2023/11/05 10:05:18;;;;;;;4.93;2.50;;;7.50;99.90;;;;;;5029212;28;20018;-84
2023/11/05 10:07:44;;;;;;;4.55;2.40;;;7.50;99.90;;;;;;5079860;28;20021;-83
2023/11/05 10:10:10;;;;;;;4.90;3.88;;;7.60;99.90;;;;;;5023029;28;20025;-83
2023/11/05 10:12:35;;;;;;;9.63;5.05;;;7.60;99.90;;;;;;5087947;28;20412;-81
2023/11/05 10:15:01;;;;;;;5.80;4.43;;;7.60;99.90;;;;;;5036264;27;20015;-82
2023/11/05 10:17:27;;;;;;;6.10;4.30;;;7.60;99.90;;;;;;5029705;28;20018;-84
2023/11/05 10:19:52;;;;;;;5.80;4.05;;;7.60;99.90;;;;;;5097075;28;20029;-83
2023/11/05 10:22:19;;;;;;;7.07;4.70;;;7.60;99.90;;;;;;5097768;28;20561;-84
2023/11/05 10:24:45;;;;;;;5.30;3.92;;;7.60;99.90;;;;;;5097613;28;20033;-83
2023/11/05 10:27:25;;;;;;;6.40;5.50;;;7.70;99.90;;;;;;5026993;28;20109;-77
2023/11/05 10:29:51;;;;;;;4.43;4.00;;;7.70;99.90;;;;;;5029007;28;20033;-77
2023/11/05 10:32:17;;;;;;;4.38;2.58;;;7.70;99.90;;;;;;5092517;28;20048;-77
2023/11/05 10:34:44;;;;;;;3.88;3.47;;;7.70;99.90;;;;;;5028468;28;20026;-83
2023/11/05 10:37:10;;;;;;;4.38;2.63;;;7.70;99.90;;;;;;5021327;28;20065;-82
2023/11/05 10:39:36;;;;;;;4.03;2.75;;;7.70;99.90;;;;;;5095262;28;20029;-83
2023/11/05 10:42:03;;;;;;;4.85;3.50;;;7.70;99.90;;;;;;5016474;28;20021;-83
2023/11/05 10:44:30;;;;;;;7.95;5.50;;;7.80;99.90;;;;;;5095199;28;20049;-83
2023/11/05 10:46:59;;;;;;;20.25;11.55;;;7.80;99.90;;;;;;5029337;28;20030;-83
2023/11/05 10:49:25;;;;;;;54.90;25.35;;;7.80;99.90;;;;;;5016608;28;20525;-83
2023/11/05 10:51:51;;;;;;;180.32;75.20;;;7.80;99.90;;;;;;5015755;28;20030;-83
2023/11/05 10:54:17;;;;;;;112.88;50.15;;;7.80;99.90;;;;;;5029089;28;20024;-83
2023/11/05 10:56:44;;;;;;;326.45;114.00;;;7.80;99.90;;;;;;5096148;28;20098;-83
2023/11/05 10:59:11;;;;;;;190.93;67.15;;;7.80;99.90;;;;;;5097547;28;20029;-83
2023/11/05 11:01:37;;;;;;;157.98;58.83;;;7.90;99.90;;;;;;5096706;28;20109;-83
2023/11/05 11:04:18;;;;;;;307.83;100.25;;;7.90;99.90;;;;;;5029096;28;20445;-83
2023/11/05 11:06:44;;;;;;;310.63;94.82;;;7.90;99.90;;;;;;5096757;28;20486;-83
2023/11/05 11:09:27;;;;;;;302.13;99.18;;;7.90;99.90;;;;;;5097170;28;20475;-83
2023/11/05 11:11:54;;;;;;;488.52;173.10;;;7.90;99.90;;;;;;5095449;28;20495;-83
2023/11/05 11:14:24;;;;;;;433.10;143.18;;;7.90;99.90;;;;;;5028904;28;20467;-83
2023/11/05 11:16:50;;;;;;;386.90;123.20;;;7.90;99.90;;;;;;5028245;28;20037;-77
2023/11/05 11:19:18;;;;;;;107.72;32.40;;;7.90;99.90;;;;;;5097474;28;20017;-77
2023/11/05 11:21:50;;;;;;;261.90;87.47;;;7.90;99.90;;;;;;5095220;28;20040;-77
2023/11/05 11:24:33;;;;;;;273.52;88.50;;;8.00;99.90;;;;;;5096075;28;20478;-77
2023/11/05 11:27:04;;;;;;;373.60;117.60;;;8.00;99.90;;;;;;5096144;28;20082;-77
2023/11/05 11:29:37;;;;;;;162.80;54.92;;;7.90;99.90;;;;;;5096734;28;20558;-78
2023/11/05 11:32:04;;;;;;;286.88;88.43;;;7.90;99.90;;;;;;5096956;28;20086;-77
2023/11/05 11:34:31;;;;;;;135.65;45.15;;;8.00;99.90;;;;;;5096600;28;20049;-77
2023/11/05 11:37:05;;;;;;;254.40;88.18;;;7.90;99.90;;;;;;5028349;28;20030;-77
2023/11/05 11:39:32;;;;;;;36.45;15.25;;;8.00;99.90;;;;;;5026716;28;20482;-77
2023/11/05 11:41:58;;;;;;;23.10;10.95;;;8.00;99.90;;;;;;5095122;28;20117;-77
2023/11/05 11:44:26;;;;;;;43.63;17.45;;;8.00;99.90;;;;;;5084622;28;20129;-77
2023/11/05 11:46:52;;;;;;;31.33;14.00;;;7.90;99.90;;;;;;5098150;28;20113;-77
2023/11/05 11:49:18;;;;;;;23.50;9.48;;;7.90;99.90;;;;;;5098415;28;20124;-77
2023/11/05 11:51:44;;;;;;;15.20;8.23;;;7.90;99.90;;;;;;5098269;28;20128;-77
2023/11/05 11:54:10;;;;;;;16.88;8.27;;;7.90;99.90;;;;;;5100263;28;20133;-77
2023/11/05 11:56:43;;;;;;;39.00;15.32;;;7.90;99.90;;;;;;5096641;28;20029;-77
2023/11/05 11:59:08;;;;;;;47.05;19.38;;;7.90;99.90;;;;;;5087518;28;20029;-78
2023/11/05 12:01:38;;;;;;;20.38;8.43;;;7.80;99.90;;;;;;5099972;28;20028;-77
2023/11/05 12:04:05;;;;;;;16.52;7.30;;;7.80;99.90;;;;;;5099953;28;20535;-77
2023/11/05 12:06:31;;;;;;;12.00;6.63;;;7.80;99.90;;;;;;5099343;28;20376;-77
2023/11/05 12:08:58;;;;;;;28.90;11.00;;;7.80;99.90;;;;;;5100158;28;20018;-78
2023/11/05 12:11:29;;;;;;;12.38;6.50;;;7.80;99.90;;;;;;5095845;28;20073;-77
2023/11/05 12:13:55;;;;;;;8.27;5.97;;;7.80;99.90;;;;;;5028408;28;20063;-77
2023/11/05 12:16:20;;;;;;;13.85;7.45;;;7.80;99.90;;;;;;5098282;28;20026;-77
2023/11/05 12:18:48;;;;;;;52.83;21.52;;;7.90;99.90;;;;;;5099837;28;20443;-77
2023/11/05 12:21:14;;;;;;;11.13;6.70;;;7.90;99.90;;;;;;5098825;28;20070;-77
2023/11/05 12:23:41;;;;;;;16.38;8.15;;;7.90;99.90;;;;;;5019070;28;20033;-77
2023/11/05 12:26:09;;;;;;;11.57;6.00;;;7.90;99.90;;;;;;5093565;28;20026;-77
2023/11/05 12:28:35;;;;;;;19.85;9.98;;;8.00;99.90;;;;;;5026183;28;20034;-77
2023/11/05 12:31:06;;;;;;;10.18;6.20;;;8.10;99.90;;;;;;5098850;28;20116;-83
2023/11/05 12:33:34;;;;;;;22.77;12.93;;;8.10;99.90;;;;;;5096975;28;20098;-83
2023/11/05 12:36:00;;;;;;;9.05;6.28;;;8.10;99.90;;;;;;5030854;28;20052;-83
2023/11/05 12:38:27;;;;;;;9.30;6.07;;;8.10;99.90;;;;;;5099648;28;20390;-83
2023/11/05 12:40:53;;;;;;;13.70;6.82;;;8.10;99.90;;;;;;5099245;28;20026;-84
2023/11/05 12:43:23;;;;;;;12.77;6.70;;;8.20;99.90;;;;;;5023358;28;20387;-83
2023/11/05 12:45:52;;;;;;;12.73;5.95;;;8.30;99.90;;;;;;5027226;28;20394;-83